Time;durP1;ratioP1;P1;durP2;ratioP2;P2;SDS_P1;SDS_P2;PMS_P1;PMS_P2;Temp;Humidity;BMP_temperature;BMP_pressure;BME280_temperature;BME280_humidity;BME280_pressure;Samples;Min_cycle;Max_cycle;Signal;HPM_P1;HPM_P2
2023/06/23 00:01:17;;;;;;;15.50;10.88;;;17.30;99.90;;;;;;5109645;28;20660;-33
2023/06/23 00:03:45;;;;;;;15.10;12.43;;;17.30;99.90;;;;;;5109537;28;20047;-33
2023/06/23 00:06:14;;;;;;;19.75;12.15;;;17.30;99.90;;;;;;5092612;28;20036;-32
2023/06/23 00:08:40;;;;;;;14.10;11.75;;;17.30;99.90;;;;;;5098464;28;20043;-33
2023/06/23 00:11:10;;;;;;;15.43;12.82;;;17.30;99.90;;;;;;5105050;28;20035;-33
2023/06/23 00:13:37;;;;;;;15.85;11.63;;;17.40;99.90;;;;;;5096949;28;20039;-32
2023/06/23 00:16:04;;;;;;;14.73;12.50;;;17.30;99.90;;;;;;5095013;28;20313;-33
2023/06/23 00:18:32;;;;;;;14.95;12.68;;;17.40;99.90;;;;;;5103456;28;20058;-33
2023/06/23 00:20:58;;;;;;;15.32;12.30;;;17.40;99.90;;;;;;5095594;28;20528;-33
2023/06/23 00:23:23;;;;;;;15.27;12.40;;;17.40;99.90;;;;;;5068834;28;20115;-33
2023/06/23 00:25:49;;;;;;;13.07;11.77;;;17.40;99.90;;;;;;5097592;28;20035;-32
2023/06/23 00:28:14;;;;;;;15.88;12.80;;;17.40;99.90;;;;;;5101752;28;20127;-33
2023/06/23 00:30:40;;;;;;;17.27;12.75;;;17.40;99.90;;;;;;5110714;28;20042;-33
2023/06/23 00:33:06;;;;;;;16.17;12.73;;;17.40;99.90;;;;;;5104359;28;20110;-33
2023/06/23 00:35:31;;;;;;;16.73;13.35;;;17.40;99.90;;;;;;5105378;27;20071;-44
2023/06/23 00:37:57;;;;;;;13.68;11.73;;;17.40;99.90;;;;;;5099010;28;20040;-42
2023/06/23 00:40:24;;;;;;;15.18;12.73;;;17.40;99.90;;;;;;5109826;28;20038;-41
2023/06/23 00:42:52;;;;;;;20.05;13.07;;;17.40;99.90;;;;;;5107496;28;20062;-38
2023/06/23 00:45:19;;;;;;;13.98;12.40;;;17.40;99.90;;;;;;5112521;28;20062;-34
2023/06/23 00:47:45;;;;;;;15.57;12.77;;;17.40;99.90;;;;;;5112697;28;20045;-35
2023/06/23 00:50:17;;;;;;;15.55;12.90;;;17.40;99.90;;;;;;5112557;28;20047;-33
2023/06/23 00:52:49;;;;;;;14.18;12.57;;;17.30;99.90;;;;;;5112708;28;20106;-35
2023/06/23 00:55:26;;;;;;;14.10;12.30;;;17.30;99.90;;;;;;5112106;28;20039;-38
2023/06/23 00:57:54;;;;;;;14.50;12.98;;;17.30;99.90;;;;;;5104491;28;20631;-36
2023/06/23 01:00:21;;;;;;;16.60;13.23;;;17.30;99.90;;;;;;5104078;28;20469;-36
2023/06/23 01:02:54;;;;;;;17.02;13.65;;;17.30;99.90;;;;;;5112362;28;20039;-35
2023/06/23 01:05:23;;;;;;;16.65;13.38;;;17.30;99.90;;;;;;5111911;28;20456;-36
2023/06/23 01:08:14;;;;;;;15.95;13.20;;;17.30;99.90;;;;;;5112429;28;20511;-33
2023/06/23 01:10:47;;;;;;;17.45;13.90;;;17.20;99.90;;;;;;5111717;28;20047;-39
2023/06/23 01:13:33;;;;;;;15.02;12.73;;;17.20;99.90;;;;;;5112248;28;20078;-33
2023/06/23 01:16:09;;;;;;;17.63;13.98;;;17.20;99.90;;;;;;5111974;28;20408;-34
2023/06/23 01:18:54;;;;;;;16.98;13.75;;;17.20;99.90;;;;;;5093591;28;20051;-33
2023/06/23 01:21:39;;;;;;;14.93;13.18;;;17.20;99.90;;;;;;5107275;28;20040;-37
2023/06/23 01:24:26;;;;;;;15.23;12.65;;;17.20;99.90;;;;;;5104681;28;20626;-39
2023/06/23 01:27:20;;;;;;;14.73;13.07;;;17.20;99.90;;;;;;5111478;28;20040;-37
2023/06/23 01:29:50;;;;;;;14.63;13.10;;;17.20;99.90;;;;;;5093504;28;20096;-36
2023/06/23 01:32:26;;;;;;;17.27;13.23;;;17.20;99.90;;;;;;5111624;28;20085;-32
2023/06/23 01:34:56;;;;;;;15.20;13.15;;;17.20;99.90;;;;;;5097245;28;20365;-35
2023/06/23 01:37:32;;;;;;;15.85;13.02;;;17.10;99.90;;;;;;5111894;28;20381;-39
2023/06/23 01:40:07;;;;;;;18.05;14.50;;;17.10;99.90;;;;;;5111583;28;20531;-37
2023/06/23 01:42:35;;;;;;;16.52;14.07;;;17.10;99.90;;;;;;5111818;28;20050;-35
2023/06/23 01:45:05;;;;;;;16.67;13.65;;;17.10;99.90;;;;;;5111314;28;20054;-34
2023/06/23 01:47:37;;;;;;;17.83;13.25;;;17.10;99.90;;;;;;5093091;28;20036;-34
2023/06/23 01:50:06;;;;;;;17.80;13.40;;;17.10;99.90;;;;;;5111296;28;20408;-34
2023/06/23 01:52:35;;;;;;;16.90;12.95;;;17.10;99.90;;;;;;5111334;28;20046;-35
2023/06/23 01:55:02;;;;;;;14.55;12.52;;;17.10;99.90;;;;;;5093152;28;20055;-35
2023/06/23 01:57:29;;;;;;;18.25;12.77;;;17.10;99.90;;;;;;5111617;28;20035;-34
2023/06/23 01:59:56;;;;;;;16.98;13.20;;;17.10;99.90;;;;;;5093573;28;20053;-38
2023/06/23 02:02:24;;;;;;;16.65;13.70;;;17.10;99.90;;;;;;5111643;28;20035;-34
2023/06/23 02:04:51;;;;;;;14.93;13.45;;;17.10;99.90;;;;;;5111682;28;20130;-34
2023/06/23 02:07:19;;;;;;;17.52;15.73;;;17.10;99.90;;;;;;5093275;28;20039;-34
2023/06/23 02:09:45;;;;;;;15.27;13.60;;;17.10;99.90;;;;;;5111397;28;20043;-36
2023/06/23 02:12:12;;;;;;;16.60;14.18;;;17.10;99.90;;;;;;5111367;28;20538;-32
2023/06/23 02:14:40;;;;;;;18.40;14.40;;;17.10;99.90;;;;;;5111789;28;20073;-36
2023/06/23 02:17:10;;;;;;;15.98;14.27;;;17.10;99.90;;;;;;5111014;28;20066;-33
2023/06/23 02:19:42;;;;;;;17.20;15.38;;;17.10;99.90;;;;;;5101468;28;20040;-37
2023/06/23 02:22:17;;;;;;;18.65;15.20;;;17.10;99.90;;;;;;5089277;28;20040;-37
2023/06/23 02:24:45;;;;;;;16.17;14.10;;;17.10;99.90;;;;;;5090374;28;20088;-36
2023/06/23 02:27:11;;;;;;;20.55;16.08;;;17.10;99.90;;;;;;5101493;28;20042;-32
2023/06/23 02:29:40;;;;;;;17.85;15.07;;;17.10;99.90;;;;;;5092983;28;20507;-36
2023/06/23 02:32:07;;;;;;;18.90;15.93;;;17.00;99.90;;;;;;5092670;28;20043;-40
2023/06/23 02:34:35;;;;;;;20.02;15.15;;;17.00;99.90;;;;;;5110991;28;20088;-33
2023/06/23 02:37:04;;;;;;;18.15;15.05;;;17.00;99.90;;;;;;5111030;28;20091;-37
2023/06/23 02:39:34;;;;;;;19.48;16.10;;;17.00;99.90;;;;;;5110692;28;20506;-40
2023/06/23 02:42:01;;;;;;;17.17;15.38;;;17.00;99.90;;;;;;5110709;28;20039;-35
2023/06/23 02:44:35;;;;;;;20.63;15.73;;;16.90;99.90;;;;;;5110917;28;20050;-35
2023/06/23 02:47:03;;;;;;;18.60;14.77;;;16.90;99.90;;;;;;5111096;28;20043;-35
2023/06/23 02:49:30;;;;;;;19.90;15.15;;;16.90;99.90;;;;;;5110855;28;20472;-38
2023/06/23 02:52:01;;;;;;;16.00;14.30;;;16.90;99.90;;;;;;5093089;28;20043;-36
2023/06/23 02:54:32;;;;;;;16.95;15.15;;;16.90;99.90;;;;;;5083704;28;20036;-41
2023/06/23 02:56:58;;;;;;;16.98;14.80;;;16.90;99.90;;;;;;5084547;28;20551;-42
2023/06/23 02:59:26;;;;;;;16.08;13.50;;;16.90;99.90;;;;;;5082429;28;20036;-34
2023/06/23 03:01:55;;;;;;;16.67;14.40;;;16.90;99.90;;;;;;5083038;28;20039;-36
2023/06/23 03:04:21;;;;;;;16.55;14.80;;;16.90;99.90;;;;;;5091620;28;20044;-41
2023/06/23 03:06:47;;;;;;;16.70;13.82;;;16.80;99.90;;;;;;5090629;28;20472;-39
2023/06/23 03:09:12;;;;;;;16.90;14.80;;;16.80;99.90;;;;;;5089412;28;20055;-38
2023/06/23 03:11:38;;;;;;;16.73;13.63;;;16.80;99.90;;;;;;5089085;28;20119;-38
2023/06/23 03:14:05;;;;;;;15.80;12.77;;;16.80;99.90;;;;;;5088454;28;20028;-37
2023/06/23 03:16:48;;;;;;;15.30;13.65;;;16.80;99.90;;;;;;5077363;28;20032;-35
2023/06/23 03:19:32;;;;;;;14.67;13.17;;;16.70;99.90;;;;;;5089416;28;20036;-40
2023/06/23 03:22:03;;;;;;;14.60;12.23;;;16.70;99.90;;;;;;5081641;28;20687;-37
2023/06/23 03:24:31;;;;;;;15.30;13.48;;;16.70;99.90;;;;;;5082733;28;20516;-40
2023/06/23 03:27:01;;;;;;;17.67;14.07;;;16.70;99.90;;;;;;5074582;28;20264;-38
2023/06/23 03:29:30;;;;;;;17.38;13.73;;;16.70;99.90;;;;;;5085531;28;20522;-39
2023/06/23 03:32:03;;;;;;;17.90;13.63;;;16.60;99.90;;;;;;5081398;28;20529;-37
2023/06/23 03:34:39;;;;;;;16.88;14.65;;;16.60;99.90;;;;;;5089919;28;20028;-40
2023/06/23 03:37:07;;;;;;;18.67;14.38;;;16.60;99.90;;;;;;5079840;28;20501;-38
2023/06/23 03:39:38;;;;;;;17.67;15.43;;;16.60;99.90;;;;;;5086149;28;20409;-37
2023/06/23 03:42:05;;;;;;;22.08;15.95;;;16.60;99.90;;;;;;5061361;28;20047;-38
2023/06/23 03:44:38;;;;;;;19.02;15.52;;;16.60;99.90;;;;;;5080038;28;20295;-37
2023/06/23 03:47:11;;;;;;;19.98;15.18;;;16.60;99.90;;;;;;5067693;28;20477;-37
2023/06/23 03:49:42;;;;;;;20.50;16.33;;;16.60;99.90;;;;;;5085322;28;20304;-38
2023/06/23 03:52:10;;;;;;;18.23;16.08;;;16.60;99.90;;;;;;5087261;28;20273;-37
2023/06/23 03:54:40;;;;;;;19.02;16.80;;;16.60;99.90;;;;;;5082653;28;20040;-38
2023/06/23 03:57:10;;;;;;;21.35;17.40;;;16.70;99.90;;;;;;5071507;28;20520;-40
2023/06/23 03:59:37;;;;;;;19.20;16.52;;;16.70;99.90;;;;;;5069791;28;20044;-37
2023/06/23 04:02:06;;;;;;;20.80;16.85;;;16.60;99.90;;;;;;5069316;28;20055;-35
2023/06/23 04:04:32;;;;;;;20.77;17.80;;;16.60;99.90;;;;;;5078408;28;20068;-37
2023/06/23 04:06:59;;;;;;;18.95;17.02;;;16.60;99.90;;;;;;5089387;28;20051;-36
2023/06/23 04:09:28;;;;;;;22.90;17.58;;;16.60;99.90;;;;;;5086643;28;20043;-32
2023/06/23 04:11:57;;;;;;;19.95;17.50;;;16.60;99.90;;;;;;5088821;28;20036;-34
2023/06/23 04:14:24;;;;;;;19.58;16.52;;;16.60;99.90;;;;;;5089247;28;20035;-36
2023/06/23 04:16:53;;;;;;;21.73;16.88;;;16.60;99.90;;;;;;5088375;28;20478;-34
2023/06/23 04:19:23;;;;;;;21.27;16.77;;;16.60;99.90;;;;;;5088476;28;20048;-37
2023/06/23 04:21:51;;;;;;;21.02;17.33;;;16.60;99.90;;;;;;5087504;28;20074;-36
2023/06/23 04:24:17;;;;;;;19.75;16.85;;;16.60;99.90;;;;;;5089472;28;20055;-36
2023/06/23 04:26:45;;;;;;;20.20;15.88;;;16.50;99.90;;;;;;5089876;28;20036;-33
2023/06/23 04:29:13;;;;;;;18.25;16.20;;;16.50;99.90;;;;;;5089644;28;20299;-38
2023/06/23 04:31:40;;;;;;;18.20;16.08;;;16.50;99.90;;;;;;5093140;28;20042;-36
2023/06/23 04:34:05;;;;;;;20.75;15.52;;;16.50;99.90;;;;;;5093074;28;20036;-40
2023/06/23 04:36:40;;;;;;;18.52;15.98;;;16.60;99.90;;;;;;5074773;28;20489;-36
2023/06/23 04:39:27;;;;;;;20.58;16.67;;;16.50;99.90;;;;;;5092646;28;20055;-33
2023/06/23 04:42:01;;;;;;;20.95;15.52;;;16.60;99.90;;;;;;5092081;28;20036;-40
2023/06/23 04:44:32;;;;;;;20.10;15.40;;;16.60;99.90;;;;;;5088070;28;20036;-36
2023/06/23 04:47:01;;;;;;;19.02;15.10;;;16.60;99.90;;;;;;5088059;28;20115;-38
2023/06/23 04:49:31;;;;;;;17.98;15.50;;;16.70;99.90;;;;;;5088343;28;20238;-36
2023/06/23 04:52:02;;;;;;;19.17;15.10;;;16.70;99.90;;;;;;5087647;28;20044;-33
2023/06/23 04:54:39;;;;;;;19.60;16.23;;;16.60;99.90;;;;;;5082715;28;20051;-34
2023/06/23 04:57:09;;;;;;;17.83;15.18;;;16.60;99.90;;;;;;5082725;28;20036;-33
2023/06/23 04:59:39;;;;;;;20.48;14.82;;;16.70;99.90;;;;;;5082571;28;20489;-34
2023/06/23 05:02:06;;;;;;;18.35;14.15;;;16.70;99.90;;;;;;5085497;28;20093;-34
2023/06/23 05:04:35;;;;;;;18.35;15.00;;;16.70;99.90;;;;;;5086939;28;20044;-36
2023/06/23 05:07:03;;;;;;;17.17;14.55;;;16.70;99.90;;;;;;5065754;28;20045;-33
2023/06/23 05:09:30;;;;;;;17.95;14.23;;;16.70;99.90;;;;;;5091524;28;20087;-37
2023/06/23 05:11:57;;;;;;;18.15;14.55;;;16.80;99.90;;;;;;5091568;28;20036;-36
2023/06/23 05:14:25;;;;;;;16.10;14.20;;;16.70;99.90;;;;;;5091720;28;20115;-36
2023/06/23 05:16:52;;;;;;;22.77;15.65;;;16.80;99.90;;;;;;5091878;28;20048;-35
2023/06/23 05:19:21;;;;;;;17.38;14.32;;;16.80;99.90;;;;;;5089192;28;20109;-37
2023/06/23 05:21:48;;;;;;;17.23;14.40;;;16.80;99.90;;;;;;5065160;28;20062;-35
2023/06/23 05:24:16;;;;;;;17.80;13.55;;;16.80;99.90;;;;;;5073042;28;20062;-35
2023/06/23 05:26:43;;;;;;;19.15;14.85;;;16.90;99.90;;;;;;5056792;28;20127;-38
2023/06/23 05:29:13;;;;;;;15.82;14.20;;;16.90;99.90;;;;;;5093241;28;20115;-36
2023/06/23 05:31:43;;;;;;;16.90;14.07;;;16.90;99.90;;;;;;5074970;28;20028;-38
2023/06/23 05:34:14;;;;;;;18.42;14.25;;;17.00;99.90;;;;;;5093082;28;20499;-37
2023/06/23 05:36:42;;;;;;;15.55;13.85;;;17.00;99.90;;;;;;5093250;28;20032;-36
2023/06/23 05:39:11;;;;;;;15.60;13.05;;;17.00;99.90;;;;;;5092830;28;20040;-38
2023/06/23 05:41:38;;;;;;;14.80;13.15;;;17.00;99.90;;;;;;5092963;28;20040;-39
2023/06/23 05:44:04;;;;;;;20.10;14.13;;;17.10;99.90;;;;;;5092704;28;20047;-37
2023/06/23 05:46:32;;;;;;;17.40;14.18;;;17.00;99.90;;;;;;5091795;28;20409;-35
2023/06/23 05:49:08;;;;;;;16.83;13.07;;;17.00;99.90;;;;;;5092170;28;20357;-40
2023/06/23 05:51:35;;;;;;;16.60;12.82;;;17.00;99.90;;;;;;5057022;28;20036;-37
2023/06/23 05:54:08;;;;;;;15.15;13.65;;;17.10;99.90;;;;;;5073338;28;20039;-36
2023/06/23 05:56:48;;;;;;;16.42;13.32;;;17.00;99.90;;;;;;5091351;28;20378;-40
2023/06/23 05:59:39;;;;;;;14.38;12.13;;;17.00;99.90;;;;;;5091406;28;20055;-38
2023/06/23 06:02:08;;;;;;;19.45;13.60;;;17.00;99.90;;;;;;5069355;28;20443;-36
2023/06/23 06:04:39;;;;;;;17.67;12.80;;;17.00;99.90;;;;;;5070875;28;20362;-36
2023/06/23 06:07:06;;;;;;;18.58;13.45;;;17.10;99.90;;;;;;5070581;28;20394;-35
2023/06/23 06:09:33;;;;;;;14.50;13.02;;;17.00;99.90;;;;;;5071361;28;20415;-40
2023/06/23 06:11:59;;;;;;;16.33;13.52;;;17.00;99.90;;;;;;5066624;28;20058;-33
2023/06/23 06:14:28;;;;;;;14.77;12.85;;;17.00;99.90;;;;;;5090959;28;20036;-34
2023/06/23 06:16:56;;;;;;;15.85;13.02;;;17.00;99.90;;;;;;5056874;28;20048;-36
2023/06/23 06:19:23;;;;;;;17.17;13.23;;;17.00;99.90;;;;;;5110894;28;20071;-39
2023/06/23 06:21:51;;;;;;;14.85;13.13;;;17.00;99.90;;;;;;5110626;28;20048;-35
2023/06/23 06:24:19;;;;;;;15.10;13.05;;;17.00;99.90;;;;;;5092336;28;20056;-35
2023/06/23 06:26:46;;;;;;;13.35;11.80;;;17.00;99.90;;;;;;5110770;28;20348;-37
2023/06/23 06:29:13;;;;;;;15.15;13.63;;;17.00;99.90;;;;;;5110549;28;20040;-37
2023/06/23 06:31:40;;;;;;;17.23;12.85;;;17.00;99.90;;;;;;5092636;28;20059;-33
2023/06/23 06:34:08;;;;;;;15.43;13.20;;;17.00;99.90;;;;;;5088573;28;20078;-35
2023/06/23 06:36:36;;;;;;;15.80;13.02;;;17.10;99.90;;;;;;5089552;28;20066;-34
2023/06/23 06:39:03;;;;;;;15.18;13.52;;;17.20;99.90;;;;;;5088716;28;20040;-34
2023/06/23 06:41:34;;;;;;;16.75;13.82;;;17.40;99.90;;;;;;5090778;28;20481;-33
2023/06/23 06:44:01;;;;;;;15.48;13.73;;;17.60;99.90;;;;;;5090951;28;20048;-37
2023/06/23 06:46:29;;;;;;;20.42;14.73;;;17.80;99.90;;;;;;5090915;28;20606;-40
2023/06/23 06:48:57;;;;;;;15.65;13.23;;;18.00;99.90;;;;;;5090988;28;20105;-36
2023/06/23 06:51:24;;;;;;;16.00;12.55;;;18.20;99.90;;;;;;5090666;28;20086;-36
2023/06/23 06:53:50;;;;;;;14.05;11.68;;;18.40;99.90;;;;;;5090938;28;20358;-36
2023/06/23 06:56:17;;;;;;;15.43;11.65;;;18.50;99.90;;;;;;5090686;28;20104;-33
2023/06/23 06:58:43;;;;;;;13.05;11.80;;;18.70;99.90;;;;;;5091084;28;20124;-38
2023/06/23 07:01:10;;;;;;;13.65;11.63;;;18.80;99.90;;;;;;5056045;28;20094;-38
2023/06/23 07:03:39;;;;;;;12.32;10.98;;;19.00;99.90;;;;;;5090333;28;20040;-35
2023/06/23 07:06:06;;;;;;;11.48;9.60;;;19.20;99.90;;;;;;5090658;28;20396;-37
2023/06/23 07:08:31;;;;;;;14.00;9.75;;;19.30;99.90;;;;;;5090642;28;20036;-37
2023/06/23 07:10:57;;;;;;;12.90;10.00;;;19.50;99.90;;;;;;5055585;28;20047;-37
2023/06/23 07:13:22;;;;;;;10.00;8.90;;;19.60;99.90;;;;;;5090464;28;20032;-33
2023/06/23 07:15:48;;;;;;;10.32;8.90;;;19.70;99.90;;;;;;5090685;28;20036;-37
2023/06/23 07:18:14;;;;;;;10.23;9.18;;;19.70;99.90;;;;;;5103392;28;20531;-37
2023/06/23 07:20:40;;;;;;;11.15;9.35;;;19.80;99.90;;;;;;5098669;28;20052;-33
2023/06/23 07:23:05;;;;;;;11.48;8.95;;;19.80;99.90;;;;;;5110052;28;20028;-33
2023/06/23 07:25:31;;;;;;;10.25;8.95;;;19.90;99.90;;;;;;5088823;28;20096;-34
2023/06/23 07:27:57;;;;;;;11.02;8.23;;;20.10;99.90;;;;;;5098593;28;20054;-33
2023/06/23 07:30:22;;;;;;;10.65;8.25;;;20.20;99.90;;;;;;5096025;28;20043;-36
2023/06/23 07:32:49;;;;;;;9.18;8.20;;;20.30;99.90;;;;;;5105512;28;20047;-33
2023/06/23 07:35:14;;;;;;;8.80;7.90;;;20.50;99.90;;;;;;5110612;28;20044;-33
2023/06/23 07:37:40;;;;;;;8.82;8.02;;;20.50;99.90;;;;;;5110790;28;20401;-34
2023/06/23 07:40:07;;;;;;;11.35;8.20;;;20.70;99.90;;;;;;5099100;28;20477;-33
2023/06/23 07:42:32;;;;;;;9.10;7.97;;;20.70;99.90;;;;;;5101014;28;20177;-33
2023/06/23 07:44:58;;;;;;;8.38;7.15;;;20.80;99.90;;;;;;5115693;27;20136;-33
2023/06/23 07:47:24;;;;;;;12.25;7.13;;;20.90;99.90;;;;;;5111407;28;20075;-33
2023/06/23 07:49:50;;;;;;;7.65;6.93;;;21.00;99.90;;;;;;5113257;27;20484;-33
2023/06/23 07:52:16;;;;;;;8.35;6.97;;;21.10;99.90;;;;;;5114516;27;20038;-34
2023/06/23 07:54:41;;;;;;;10.10;7.47;;;21.20;99.90;;;;;;5107733;27;20103;-34
2023/06/23 07:57:11;;;;;;;7.50;6.40;;;21.40;99.90;;;;;;5105131;28;20044;-33
2023/06/23 07:59:37;;;;;;;7.10;6.40;;;21.40;99.90;;;;;;5104341;28;20078;-36
2023/06/23 08:02:04;;;;;;;9.02;7.15;;;21.50;99.90;;;;;;5097687;28;20109;-33
2023/06/23 08:04:30;;;;;;;7.70;6.90;;;21.70;99.90;;;;;;5113543;27;20035;-34
2023/06/23 08:06:56;;;;;;;7.00;6.38;;;21.80;99.90;;;;;;5096149;28;20032;-37
2023/06/23 08:09:21;;;;;;;10.88;6.97;;;21.90;99.90;;;;;;5102900;28;20443;-34
2023/06/23 08:11:47;;;;;;;7.88;6.43;;;22.10;99.90;;;;;;5081598;28;20317;-33
2023/06/23 08:14:13;;;;;;;6.57;5.95;;;22.20;99.90;;;;;;5094965;28;20118;-33
2023/06/23 08:16:39;;;;;;;7.38;6.60;;;22.40;99.90;;;;;;5094581;28;20032;-34
2023/06/23 08:19:05;;;;;;;6.25;5.63;;;22.40;99.90;;;;;;5099164;28;20070;-33
2023/06/23 08:21:31;;;;;;;6.63;5.93;;;22.60;99.90;;;;;;5109857;28;20071;-33
2023/06/23 08:23:57;;;;;;;7.50;6.63;;;22.70;99.90;;;;;;5114393;27;20039;-34
2023/06/23 08:26:23;;;;;;;9.82;6.50;;;22.80;99.90;;;;;;5112450;27;20397;-33
2023/06/23 08:28:49;;;;;;;7.25;6.55;;;22.80;99.90;;;;;;5120305;27;20480;-33
2023/06/23 08:31:14;;;;;;;7.45;6.00;;;22.90;99.90;;;;;;5104402;27;20116;-34
2023/06/23 08:33:40;;;;;;;8.57;6.00;;;23.00;99.90;;;;;;5105316;28;20032;-37
2023/06/23 08:36:06;;;;;;;9.20;6.68;;;23.20;99.90;;;;;;5118525;27;20039;-33
2023/06/23 08:38:32;;;;;;;7.35;6.15;;;23.20;99.90;;;;;;5111028;27;20246;-33
2023/06/23 08:40:58;;;;;;;9.43;7.05;;;23.20;99.90;;;;;;5099809;28;20039;-33
2023/06/23 08:43:27;;;;;;;7.40;6.50;;;23.40;99.90;;;;;;5103960;28;20050;-34
2023/06/23 08:45:58;;;;;;;6.13;5.53;;;23.70;99.90;;;;;;5103526;28;20048;-34
2023/06/23 08:48:29;;;;;;;7.03;5.53;;;23.60;99.90;;;;;;5112876;28;20036;-34
2023/06/23 08:50:57;;;;;;;7.50;5.80;;;23.70;99.90;;;;;;5109926;27;20034;-33
2023/06/23 08:53:24;;;;;;;5.85;5.30;;;23.80;99.90;;;;;;5112517;27;20036;-33
2023/06/23 08:55:50;;;;;;;5.50;5.00;;;23.90;99.90;;;;;;5113016;27;20042;-34
2023/06/23 08:58:17;;;;;;;6.25;5.65;;;24.20;99.90;;;;;;5119282;27;20031;-33
2023/06/23 09:00:43;;;;;;;6.35;5.55;;;24.40;99.90;;;;;;5117735;27;20028;-36
2023/06/23 09:03:09;;;;;;;7.88;5.65;;;24.70;99.90;;;;;;5099701;28;20046;-38
2023/06/23 09:05:35;;;;;;;6.47;5.82;;;24.90;99.90;;;;;;5110414;28;20327;-37
2023/06/23 09:08:01;;;;;;;7.18;5.22;;;25.00;99.90;;;;;;5112391;28;20089;-37
2023/06/23 09:10:27;;;;;;;5.35;4.85;;;25.10;99.90;;;;;;5108542;27;20035;-39
2023/06/23 09:13:07;;;;;;;5.72;5.10;;;25.20;99.90;;;;;;5119161;27;21313;-35
2023/06/23 09:15:34;;;;;;;5.57;4.30;;;25.40;99.90;;;;;;5120679;27;20689;-40
2023/06/23 09:18:04;;;;;;;4.55;4.10;;;25.50;99.90;;;;;;5095426;28;20516;-38
2023/06/23 09:20:30;;;;;;;4.63;4.18;;;25.70;99.90;;;;;;5120161;27;20035;-39
2023/06/23 09:22:58;;;;;;;4.40;4.10;;;25.90;99.90;;;;;;5118791;27;20032;-38
2023/06/23 09:25:43;;;;;;;4.50;4.10;;;26.00;99.90;;;;;;5106266;27;20076;-37
2023/06/23 09:28:26;;;;;;;4.10;3.80;;;25.80;99.90;;;;;;5111423;28;20071;-38
2023/06/23 09:30:53;;;;;;;4.43;3.90;;;25.80;99.90;;;;;;5113969;27;20115;-36
2023/06/23 09:33:20;;;;;;;4.60;4.20;;;26.00;99.90;;;;;;5079242;28;20046;-33
2023/06/23 09:35:51;;;;;;;4.32;3.92;;;26.30;99.90;;;;;;5093042;28;20039;-35
2023/06/23 09:38:27;;;;;;;4.25;3.83;;;26.40;99.90;;;;;;5110898;28;20052;-38
2023/06/23 09:41:14;;;;;;;4.82;3.70;;;26.50;99.90;;;;;;5112605;28;20050;-38
2023/06/23 09:43:42;;;;;;;4.50;4.00;;;26.30;99.90;;;;;;5091744;28;20039;-35
2023/06/23 09:46:17;;;;;;;4.53;4.22;;;26.50;99.90;;;;;;5091693;28;20560;-37
2023/06/23 09:48:49;;;;;;;4.30;3.90;;;26.60;99.90;;;;;;5091421;28;20044;-38
2023/06/23 09:51:18;;;;;;;4.10;3.80;;;26.70;99.90;;;;;;5088828;28;20043;-34
2023/06/23 09:53:44;;;;;;;4.53;4.13;;;26.70;99.90;;;;;;5095321;28;20126;-38
2023/06/23 09:56:21;;;;;;;4.30;3.90;;;27.00;99.90;;;;;;5112046;28;20055;-36
2023/06/23 09:58:48;;;;;;;4.18;3.78;;;27.40;99.90;;;;;;5106921;28;20051;-33
2023/06/23 10:01:18;;;;;;;3.92;3.53;;;27.50;99.90;;;;;;5091672;28;20408;-38
2023/06/23 10:03:48;;;;;;;3.72;3.42;;;27.50;99.90;;;;;;5108244;28;20088;-39
2023/06/23 10:06:38;;;;;;;3.20;2.90;;;27.70;99.90;;;;;;5111914;28;20036;-39
2023/06/23 10:09:09;;;;;;;4.10;3.22;;;27.80;98.70;;;;;;5110987;28;20039;-38
2023/06/23 10:11:37;;;;;;;3.28;2.97;;;27.90;97.30;;;;;;5111019;28;20042;-37
2023/06/23 10:14:06;;;;;;;3.80;3.17;;;27.80;98.40;;;;;;5110667;28;20119;-34
2023/06/23 10:16:33;;;;;;;3.78;3.47;;;27.90;97.60;;;;;;5103333;28;20458;-37
2023/06/23 10:18:59;;;;;;;3.75;3.28;;;28.00;99.90;;;;;;5109061;28;20058;-37
2023/06/23 10:21:25;;;;;;;4.13;3.83;;;28.00;99.90;;;;;;5110517;28;20475;-38
2023/06/23 10:23:56;;;;;;;3.67;3.38;;;28.10;98.10;;;;;;5110810;28;20118;-41
2023/06/23 10:26:23;;;;;;;5.90;3.55;;;28.40;99.90;;;;;;5092292;28;20048;-37
2023/06/23 10:28:50;;;;;;;4.68;4.28;;;28.80;99.90;;;;;;5110566;28;20511;-40
2023/06/23 10:31:17;;;;;;;4.57;4.00;;;29.10;94.30;;;;;;5110415;28;20457;-38
2023/06/23 10:33:45;;;;;;;4.28;3.85;;;29.20;92.40;;;;;;5110444;28;20036;-38
2023/06/23 10:36:15;;;;;;;3.78;3.47;;;29.40;88.90;;;;;;5110563;28;20149;-41
2023/06/23 10:38:44;;;;;;;4.38;3.67;;;29.20;85.30;;;;;;5110648;28;20161;-38
2023/06/23 10:41:14;;;;;;;3.50;3.20;;;29.30;90.50;;;;;;5106194;28;20424;-35
2023/06/23 10:43:45;;;;;;;4.18;3.22;;;29.40;92.50;;;;;;5110144;28;20420;-33
2023/06/23 10:46:10;;;;;;;3.60;3.30;;;29.50;85.40;;;;;;5091963;28;20058;-38
2023/06/23 10:48:37;;;;;;;3.65;3.30;;;29.30;73.50;;;;;;5090225;28;20644;-39
2023/06/23 10:51:03;;;;;;;3.35;3.05;;;29.10;63.90;;;;;;5102353;28;20039;-35
2023/06/23 10:53:32;;;;;;;3.35;3.15;;;29.00;66.60;;;;;;5092148;28;20492;-42
2023/06/23 10:55:58;;;;;;;3.95;3.30;;;29.20;67.00;;;;;;5109579;28;20042;-37
2023/06/23 10:58:25;;;;;;;3.38;3.08;;;29.50;67.90;;;;;;5110117;28;20455;-35
2023/06/23 11:01:00;;;;;;;3.15;2.90;;;29.70;69.60;;;;;;5103521;28;20039;-37
2023/06/23 11:03:29;;;;;;;3.17;2.92;;;30.00;59.20;;;;;;5089584;28;20086;-38
2023/06/23 11:05:57;;;;;;;4.07;3.08;;;29.40;60.80;;;;;;5078027;28;20075;-37
2023/06/23 11:08:35;;;;;;;3.58;3.28;;;29.60;67.50;;;;;;5110225;28;20050;-37
2023/06/23 11:11:02;;;;;;;3.35;3.05;;;29.90;65.00;;;;;;5104316;28;20047;-35
2023/06/23 11:13:47;;;;;;;3.33;3.03;;;30.30;64.80;;;;;;5091969;28;20504;-40
2023/06/23 11:16:26;;;;;;;3.45;3.15;;;29.70;58.60;;;;;;5110052;28;20043;-36
2023/06/23 11:18:54;;;;;;;3.70;3.33;;;29.60;62.40;;;;;;5111698;28;20493;-36
2023/06/23 11:21:30;;;;;;;4.07;3.67;;;29.80;62.00;;;;;;5107491;28;20067;-38
2023/06/23 11:24:12;;;;;;;4.90;3.10;;;30.20;59.70;;;;;;5094001;28;20059;-36
2023/06/23 11:26:42;;;;;;;3.80;3.45;;;30.30;57.90;;;;;;5073252;28;20123;-37
2023/06/23 11:29:12;;;;;;;4.05;3.63;;;30.30;60.40;;;;;;5073549;28;20525;-38
2023/06/23 11:32:12;;;;;;;4.20;3.80;;;29.50;61.20;;;;;;5055451;28;20124;-39
2023/06/23 11:34:57;;;;;;;4.13;3.72;;;28.70;61.40;;;;;;5088038;28;20492;-38
2023/06/23 11:37:28;;;;;;;3.55;3.03;;;28.00;69.70;;;;;;5079612;28;20040;-35
2023/06/23 11:39:55;;;;;;;3.28;3.05;;;28.20;81.80;;;;;;5102565;28;20028;-36
2023/06/23 11:42:22;;;;;;;3.47;3.17;;;28.80;81.20;;;;;;5093196;28;20092;-39
2023/06/23 11:44:51;;;;;;;3.63;2.80;;;29.00;63.90;;;;;;5093468;28;20498;-35
2023/06/23 11:47:23;;;;;;;3.78;3.38;;;29.20;62.90;;;;;;5093507;28;20038;-37
2023/06/23 11:49:49;;;;;;;4.13;3.35;;;29.00;61.80;;;;;;5092799;28;20040;-41
2023/06/23 11:52:15;;;;;;;4.45;3.15;;;29.60;62.60;;;;;;5093577;28;20385;-39
2023/06/23 11:54:41;;;;;;;3.63;2.92;;;29.90;69.40;;;;;;5093347;28;20040;-37
2023/06/23 11:57:07;;;;;;;3.38;2.95;;;30.20;62.00;;;;;;5086672;28;20119;-38
2023/06/23 11:59:37;;;;;;;3.33;3.03;;;30.50;58.60;;;;;;5093593;28;20111;-37
2023/06/23 12:02:04;;;;;;;3.40;3.10;;;29.90;55.60;;;;;;5093524;28;20068;-40
2023/06/23 12:04:31;;;;;;;3.55;3.10;;;30.00;55.20;;;;;;5098618;28;20047;-35
2023/06/23 12:06:59;;;;;;;3.97;3.30;;;30.10;57.00;;;;;;5108695;28;20036;-39
2023/06/23 12:09:25;;;;;;;7.00;2.65;;;30.40;56.20;;;;;;5093524;28;20401;-39
2023/06/23 12:11:51;;;;;;;3.00;2.80;;;30.70;56.40;;;;;;5092939;28;20063;-38
2023/06/23 12:14:17;;;;;;;3.97;2.50;;;31.10;54.80;;;;;;5093340;28;20089;-40
2023/06/23 12:16:43;;;;;;;2.83;2.42;;;31.40;55.20;;;;;;5092766;28;20043;-37
2023/06/23 12:19:09;;;;;;;2.85;2.65;;;31.00;54.10;;;;;;5093421;28;20479;-38
2023/06/23 12:21:39;;;;;;;2.75;2.50;;;30.90;52.90;;;;;;5090742;28;20044;-37
2023/06/23 12:24:07;;;;;;;3.58;2.85;;;31.00;53.10;;;;;;5093009;28;20366;-35
2023/06/23 12:26:33;;;;;;;2.90;2.70;;;31.30;53.00;;;;;;5092942;28;20493;-37
2023/06/23 12:29:09;;;;;;;2.60;2.40;;;31.10;51.50;;;;;;5092783;28;20136;-36
2023/06/23 12:31:35;;;;;;;2.95;2.47;;;31.20;52.30;;;;;;5091793;28;20393;-35
2023/06/23 12:34:01;;;;;;;3.17;2.65;;;31.10;52.00;;;;;;5092566;28;20085;-42
2023/06/23 12:36:27;;;;;;;2.78;2.58;;;31.10;50.00;;;;;;5087885;28;20385;-37
2023/06/23 12:38:55;;;;;;;4.10;2.60;;;31.00;49.60;;;;;;5092235;28;20040;-39
2023/06/23 12:41:26;;;;;;;2.97;2.65;;;30.80;49.20;;;;;;5090496;28;20040;-38
2023/06/23 12:43:59;;;;;;;5.10;2.93;;;30.60;48.70;;;;;;5088830;28;20036;-37
2023/06/23 12:46:27;;;;;;;4.32;2.88;;;30.70;49.80;;;;;;5091557;28;20036;-37